Time;durP1;ratioP1;P1;durP2;ratioP2;P2;SDS_P1;SDS_P2;PMS_P1;PMS_P2;Temp;Humidity;BMP_temperature;BMP_pressure;BME280_temperature;BME280_humidity;BME280_pressure;Samples;Min_cycle;Max_cycle;Signal;HPM_P1;HPM_P2
2021/12/23 00:03:50;;;;;;;29.02;16.48;;;;;;;;;;8280459;28;20366;-62
2021/12/23 00:07:50;;;;;;;27.05;16.42;;;;;;;;;;8280542;28;20280;-63
2021/12/23 00:11:50;;;;;;;30.15;16.75;;;;;;;;;;8282047;28;20603;-63
2021/12/23 00:16:18;;;;;;;28.15;16.25;;;;;;;;;;8280526;28;20147;-63
2021/12/23 00:24:11;;;;;;;26.70;15.70;;;;;;;;;;8282375;28;20039;-62
2021/12/23 00:28:11;;;;;;;29.35;17.02;;;;;;;;;;8279491;28;20223;-63
2021/12/23 00:32:11;;;;;;;38.00;19.95;;;;;;;;;;8281157;28;20040;-62
2021/12/23 00:36:12;;;;;;;64.07;30.08;;;;;;;;;;8281909;28;20233;-62
2021/12/23 00:40:13;;;;;;;38.53;17.70;;;;;;;;;;8281947;28;20029;-63
2021/12/23 00:44:13;;;;;;;29.38;16.48;;;;;;;;;;8282175;28;20037;-63
2021/12/23 00:48:14;;;;;;;24.42;13.88;;;;;;;;;;8279477;28;20033;-63
2021/12/23 00:52:17;;;;;;;28.23;16.02;;;;;;;;;;8281916;28;20120;-63
2021/12/23 00:56:17;;;;;;;34.03;18.52;;;;;;;;;;8281264;28;20044;-63
2021/12/23 01:00:19;;;;;;;29.20;17.50;;;;;;;;;;8280507;28;20155;-62
2021/12/23 01:04:19;;;;;;;27.17;15.60;;;;;;;;;;8280614;28;20268;-62
2021/12/23 01:08:19;;;;;;;28.33;15.52;;;;;;;;;;8280967;28;21246;-62
2021/12/23 01:12:26;;;;;;;29.92;16.33;;;;;;;;;;8276662;28;20318;-63
2021/12/23 01:16:47;;;;;;;27.30;14.95;;;;;;;;;;8275634;28;20280;-63
2021/12/23 01:20:52;;;;;;;25.05;14.13;;;;;;;;;;8277291;28;20041;-63
2021/12/23 01:24:52;;;;;;;25.13;14.20;;;;;;;;;;8289596;28;20325;-62
2021/12/23 01:28:54;;;;;;;26.20;14.63;;;;;;;;;;8287091;28;20120;-62
2021/12/23 01:32:56;;;;;;;26.67;15.43;;;;;;;;;;8286352;28;20481;-63
2021/12/23 01:36:56;;;;;;;28.58;15.77;;;;;;;;;;8293771;28;20022;-62
2021/12/23 01:40:56;;;;;;;27.23;16.48;;;;;;;;;;8296482;28;20891;-62
2021/12/23 01:44:57;;;;;;;34.80;19.30;;;;;;;;;;8297184;28;20060;-62
2021/12/23 01:48:57;;;;;;;30.92;17.90;;;;;;;;;;8297206;28;20029;-63
2021/12/23 01:52:58;;;;;;;32.45;17.50;;;;;;;;;;8296871;28;20676;-63
2021/12/23 01:56:58;;;;;;;29.15;16.80;;;;;;;;;;8297064;28;20029;-62
2021/12/23 02:00:58;;;;;;;27.20;15.45;;;;;;;;;;8296127;28;20043;-62
2021/12/23 02:04:59;;;;;;;34.72;18.17;;;;;;;;;;8296643;28;20063;-62
2021/12/23 02:08:59;;;;;;;29.73;15.77;;;;;;;;;;8296404;28;20025;-62
2021/12/23 02:12:59;;;;;;;34.05;17.77;;;;;;;;;;8295868;28;20029;-62
2021/12/23 02:17:00;;;;;;;36.90;18.15;;;;;;;;;;8296393;28;20180;-62
2021/12/23 02:21:03;;;;;;;30.50;17.08;;;;;;;;;;8297574;28;20057;-62
2021/12/23 02:25:05;;;;;;;32.63;18.63;;;;;;;;;;8295626;28;20894;-62
2021/12/23 02:29:06;;;;;;;27.75;15.70;;;;;;;;;;8294914;28;20071;-62
2021/12/23 02:33:07;;;;;;;25.90;14.35;;;;;;;;;;8294992;28;20814;-62
2021/12/23 02:37:07;;;;;;;28.88;15.98;;;;;;;;;;8291073;28;20021;-62
2021/12/23 02:41:07;;;;;;;23.83;14.82;;;;;;;;;;8291574;28;20749;-63
2021/12/23 02:45:09;;;;;;;48.50;16.73;;;;;;;;;;8289581;28;20058;-63
2021/12/23 02:49:09;;;;;;;57.05;18.88;;;;;;;;;;8291157;28;20729;-63
2021/12/23 02:53:10;;;;;;;36.25;18.55;;;;;;;;;;8291239;28;20034;-62
2021/12/23 02:57:10;;;;;;;29.60;17.20;;;;;;;;;;8290546;28;20032;-62
2021/12/23 03:01:10;;;;;;;38.80;18.80;;;;;;;;;;8289889;28;20045;-62
2021/12/23 03:05:10;;;;;;;29.85;16.90;;;;;;;;;;8289078;28;20768;-62
2021/12/23 03:09:10;;;;;;;31.17;17.63;;;;;;;;;;8289174;28;20280;-62
2021/12/23 03:13:11;;;;;;;26.52;15.93;;;;;;;;;;8289911;28;20316;-62
2021/12/23 03:17:11;;;;;;;27.25;16.27;;;;;;;;;;8289038;28;20045;-62
2021/12/23 03:21:11;;;;;;;27.77;16.10;;;;;;;;;;8288077;28;20029;-62
2021/12/23 03:25:11;;;;;;;45.03;19.20;;;;;;;;;;8290330;28;20029;-62
2021/12/23 03:29:12;;;;;;;49.45;18.63;;;;;;;;;;8288987;28;20385;-62
2021/12/23 03:33:12;;;;;;;33.70;18.85;;;;;;;;;;8287496;28;20268;-62
2021/12/23 03:37:13;;;;;;;36.80;20.13;;;;;;;;;;8289166;28;20532;-62
2021/12/23 03:41:15;;;;;;;35.42;19.67;;;;;;;;;;8288194;28;20284;-62
2021/12/23 03:45:15;;;;;;;41.17;18.23;;;;;;;;;;8288603;28;20061;-63
2021/12/23 03:49:15;;;;;;;34.03;18.75;;;;;;;;;;8289140;28;20817;-62
2021/12/23 03:53:16;;;;;;;34.05;18.52;;;;;;;;;;8288094;28;20045;-62
2021/12/23 03:57:17;;;;;;;29.17;16.92;;;;;;;;;;8289335;28;20037;-62
2021/12/23 04:01:17;;;;;;;35.30;20.00;;;;;;;;;;8287574;28;20040;-62
2021/12/23 04:05:19;;;;;;;37.10;19.42;;;;;;;;;;8288684;28;20973;-62
2021/12/23 04:09:19;;;;;;;71.72;22.10;;;;;;;;;;8287999;28;20102;-62
2021/12/23 04:13:19;;;;;;;54.13;21.75;;;;;;;;;;8288556;28;20033;-62
2021/12/23 04:17:19;;;;;;;42.13;21.08;;;;;;;;;;8285647;28;20652;-62
2021/12/23 04:21:19;;;;;;;35.70;19.52;;;;;;;;;;8288588;28;20524;-62
2021/12/23 04:25:22;;;;;;;36.60;18.77;;;;;;;;;;8288747;28;20064;-62
2021/12/23 04:29:23;;;;;;;41.33;20.73;;;;;;;;;;8287214;28;20275;-62
2021/12/23 04:33:23;;;;;;;47.13;22.08;;;;;;;;;;8286330;28;20041;-63
2021/12/23 04:37:23;;;;;;;46.38;21.73;;;;;;;;;;8287270;28;20508;-62
2021/12/23 04:41:23;;;;;;;42.03;21.92;;;;;;;;;;8288184;28;20283;-62
2021/12/23 04:45:23;;;;;;;46.70;24.15;;;;;;;;;;8287327;28;20041;-62
2021/12/23 04:49:24;;;;;;;39.45;18.67;;;;;;;;;;8286736;28;20038;-62
2021/12/23 04:53:24;;;;;;;45.80;22.50;;;;;;;;;;8286610;28;20021;-63
2021/12/23 04:57:24;;;;;;;38.05;21.15;;;;;;;;;;8285616;28;20486;-62
2021/12/23 05:01:29;;;;;;;42.25;21.20;;;;;;;;;;8285794;28;20065;-62
2021/12/23 05:05:29;;;;;;;36.17;18.45;;;;;;;;;;8286768;28;20119;-62
2021/12/23 05:09:30;;;;;;;33.13;17.63;;;;;;;;;;8288063;28;20394;-63
2021/12/23 05:13:30;;;;;;;39.40;20.20;;;;;;;;;;8286169;28;20025;-62
2021/12/23 05:17:30;;;;;;;33.25;17.35;;;;;;;;;;8286380;28;20041;-62
2021/12/23 05:21:30;;;;;;;35.67;18.20;;;;;;;;;;8286759;28;20284;-62
2021/12/23 05:25:30;;;;;;;43.30;20.73;;;;;;;;;;8287618;28;20742;-62
2021/12/23 05:29:31;;;;;;;29.17;16.25;;;;;;;;;;8285539;28;20591;-62
2021/12/23 05:33:31;;;;;;;54.08;25.45;;;;;;;;;;8285397;28;20534;-62
2021/12/23 05:37:31;;;;;;;34.85;18.40;;;;;;;;;;8287441;28;20659;-62
2021/12/23 05:41:32;;;;;;;28.85;16.30;;;;;;;;;;8285364;28;20512;-63
2021/12/23 05:45:32;;;;;;;32.75;18.75;;;;;;;;;;8285558;28;20033;-63
2021/12/23 05:49:32;;;;;;;41.67;19.27;;;;;;;;;;8285937;28;20469;-62
2021/12/23 05:53:33;;;;;;;33.83;18.17;;;;;;;;;;8286584;28;20060;-62
2021/12/23 05:57:33;;;;;;;28.80;15.93;;;;;;;;;;8285343;28;20283;-62
2021/12/23 06:01:33;;;;;;;31.80;16.67;;;;;;;;;;8284591;28;20103;-62
2021/12/23 06:05:34;;;;;;;29.17;16.75;;;;;;;;;;8285382;28;20539;-62
2021/12/23 06:09:34;;;;;;;31.80;17.42;;;;;;;;;;8288596;28;20017;-63
2021/12/23 06:13:34;;;;;;;36.92;19.52;;;;;;;;;;8291463;28;20091;-62
2021/12/23 06:17:35;;;;;;;40.03;19.67;;;;;;;;;;8290521;28;20738;-62
2021/12/23 06:21:35;;;;;;;33.03;17.38;;;;;;;;;;8291921;28;20104;-62
2021/12/23 06:25:36;;;;;;;32.03;16.77;;;;;;;;;;8291240;28;20137;-62
2021/12/23 06:29:36;;;;;;;48.28;21.38;;;;;;;;;;8291614;28;20049;-62
2021/12/23 06:33:37;;;;;;;35.10;19.33;;;;;;;;;;8291075;28;20033;-62
2021/12/23 06:37:37;;;;;;;43.90;19.98;;;;;;;;;;8289692;28;20033;-62
2021/12/23 06:41:38;;;;;;;35.92;18.42;;;;;;;;;;8290932;28;20025;-63
2021/12/23 06:45:38;;;;;;;54.47;20.55;;;;;;;;;;8289998;28;21096;-63
2021/12/23 06:49:38;;;;;;;37.30;17.77;;;;;;;;;;8291961;28;20446;-63
2021/12/23 06:53:38;;;;;;;37.97;19.20;;;;;;;;;;8291730;28;20043;-62
2021/12/23 06:57:39;;;;;;;34.30;19.33;;;;;;;;;;8290086;28;20025;-62
2021/12/23 07:01:39;;;;;;;30.42;17.15;;;;;;;;;;8289560;28;20304;-62
2021/12/23 07:05:40;;;;;;;36.05;18.40;;;;;;;;;;8290618;28;20584;-62
2021/12/23 07:09:41;;;;;;;38.38;20.30;;;;;;;;;;8290153;28;20292;-62
2021/12/23 07:13:41;;;;;;;38.03;19.60;;;;;;;;;;8290793;28;20044;-62
2021/12/23 07:17:41;;;;;;;37.45;20.33;;;;;;;;;;8289622;28;20030;-63
2021/12/23 07:21:41;;;;;;;46.17;20.83;;;;;;;;;;8288766;28;20068;-62
2021/12/23 07:25:41;;;;;;;35.28;18.33;;;;;;;;;;8289102;28;20280;-62
2021/12/23 07:29:42;;;;;;;33.22;18.05;;;;;;;;;;8288674;28;20052;-62
2021/12/23 07:33:42;;;;;;;39.33;19.52;;;;;;;;;;8288283;28;20049;-62
2021/12/23 07:37:43;;;;;;;30.25;15.35;;;;;;;;;;8290073;28;20351;-62
2021/12/23 07:41:43;;;;;;;35.53;17.30;;;;;;;;;;8283192;28;20654;-62
2021/12/23 07:45:43;;;;;;;38.63;19.42;;;;;;;;;;8289286;28;20615;-63
2021/12/23 07:49:44;;;;;;;40.20;19.88;;;;;;;;;;8288215;28;20033;-62
2021/12/23 07:53:45;;;;;;;39.25;19.83;;;;;;;;;;8288471;28;20033;-62
2021/12/23 07:57:45;;;;;;;36.97;19.30;;;;;;;;;;8289414;28;20099;-63
2021/12/23 08:01:45;;;;;;;38.22;18.48;;;;;;;;;;8288097;28;20099;-63
2021/12/23 08:05:46;;;;;;;31.13;16.73;;;;;;;;;;8287237;28;20126;-62
2021/12/23 08:09:46;;;;;;;34.35;18.85;;;;;;;;;;8287488;28;20387;-62
2021/12/23 08:13:46;;;;;;;39.85;18.67;;;;;;;;;;8287879;28;20022;-62
2021/12/23 08:17:46;;;;;;;33.90;16.23;;;;;;;;;;8287278;28;20040;-63
2021/12/23 08:21:46;;;;;;;30.08;14.80;;;;;;;;;;8289069;28;20037;-62
2021/12/23 08:25:47;;;;;;;31.63;15.38;;;;;;;;;;8286865;28;20295;-63
2021/12/23 08:29:47;;;;;;;27.92;15.07;;;;;;;;;;8288115;28;20100;-62
2021/12/23 08:33:47;;;;;;;32.15;16.08;;;;;;;;;;8285803;28;20140;-64
2021/12/23 08:37:48;;;;;;;31.83;16.60;;;;;;;;;;8287536;28;20544;-63
2021/12/23 08:41:49;;;;;;;38.20;17.88;;;;;;;;;;8286355;28;20035;-63
2021/12/23 08:45:49;;;;;;;29.95;15.98;;;;;;;;;;8286257;28;20135;-63
2021/12/23 08:49:49;;;;;;;30.00;15.23;;;;;;;;;;8286106;28;20205;-63
2021/12/23 08:53:49;;;;;;;23.13;13.43;;;;;;;;;;8287878;28;20148;-63
2021/12/23 08:57:50;;;;;;;25.45;14.35;;;;;;;;;;8286669;28;20891;-63
2021/12/23 09:01:50;;;;;;;30.60;17.05;;;;;;;;;;8285678;28;20048;-63
2021/12/23 09:05:50;;;;;;;28.50;15.60;;;;;;;;;;8286796;28;20041;-63
2021/12/23 09:09:51;;;;;;;27.90;15.43;;;;;;;;;;8287516;28;20063;-63
2021/12/23 09:13:51;;;;;;;27.55;15.35;;;;;;;;;;8287786;28;20214;-64
2021/12/23 09:17:51;;;;;;;26.48;15.63;;;;;;;;;;8286743;28;20073;-65
2021/12/23 09:21:52;;;;;;;23.77;13.38;;;;;;;;;;8285079;28;20032;-64
2021/12/23 09:25:52;;;;;;;30.10;15.98;;;;;;;;;;8286941;28;20029;-64
2021/12/23 09:33:56;;;;;;;24.75;13.50;;;;;;;;;;8286857;28;20049;-64
2021/12/23 09:37:57;;;;;;;23.88;12.95;;;;;;;;;;8285808;28;20478;-65
2021/12/23 09:41:57;;;;;;;22.38;12.50;;;;;;;;;;8285425;28;20406;-64
2021/12/23 09:45:58;;;;;;;26.90;13.10;;;;;;;;;;8291574;28;20894;-65
2021/12/23 09:49:59;;;;;;;23.83;13.10;;;;;;;;;;8294482;28;20140;-65
2021/12/23 09:54:01;;;;;;;21.65;12.57;;;;;;;;;;8293306;28;20842;-65
2021/12/23 09:58:02;;;;;;;22.55;12.38;;;;;;;;;;8293059;28;20044;-65
2021/12/23 10:02:02;;;;;;;24.48;14.40;;;;;;;;;;8293171;28;20140;-64
2021/12/23 10:06:03;;;;;;;23.52;12.77;;;;;;;;;;8291911;28;20056;-65
2021/12/23 10:10:13;;;;;;;24.93;13.60;;;;;;;;;;8293204;28;20788;-65
2021/12/23 10:31:38;;;;;;;20.77;10.70;;;;;;;;;;8287446;28;21120;-65
2021/12/23 10:40:05;;;;;;;21.80;11.90;;;;;;;;;;8286852;28;20036;-65
2021/12/23 10:44:05;;;;;;;18.30;11.00;;;;;;;;;;8288832;28;20686;-64
2021/12/23 10:48:10;;;;;;;20.83;12.23;;;;;;;;;;8284363;28;20037;-66
2021/12/23 10:52:17;;;;;;;21.63;12.50;;;;;;;;;;8287018;28;20048;-66
2021/12/23 11:00:46;;;;;;;17.73;10.68;;;;;;;;;;8285436;28;20052;-66
2021/12/23 11:04:51;;;;;;;18.60;10.38;;;;;;;;;;8286705;28;20643;-66
2021/12/23 11:09:14;;;;;;;17.58;10.82;;;;;;;;;;8286702;28;20029;-66
2021/12/23 11:39:50;;;;;;;20.08;10.50;;;;;;;;;;8285750;28;20095;-66
2021/12/23 11:43:53;;;;;;;18.17;11.60;;;;;;;;;;8284393;28;20047;-67
2021/12/23 11:47:53;;;;;;;20.23;11.35;;;;;;;;;;8283280;28;20029;-67
2021/12/23 11:51:55;;;;;;;17.77;10.68;;;;;;;;;;8284610;28;20063;-66
2021/12/23 11:55:55;;;;;;;17.45;10.70;;;;;;;;;;8283939;28;21038;-66
2021/12/23 12:00:31;;;;;;;18.98;10.43;;;;;;;;;;8284556;28;20102;-66
2021/12/23 12:04:26;;;;;;;20.10;10.52;;;;;;;;;;8281569;28;20397;-67
2021/12/23 12:08:27;;;;;;;17.83;10.13;;;;;;;;;;8281684;28;20575;-67
2021/12/23 12:12:28;;;;;;;18.20;10.75;;;;;;;;;;8283184;28;20452;-67
2021/12/23 12:16:35;;;;;;;17.60;10.63;;;;;;;;;;8281092;28;20052;-67
2021/12/23 12:21:02;;;;;;;18.02;9.57;;;;;;;;;;8282779;28;20590;-67
2021/12/23 12:24:57;;;;;;;17.67;10.48;;;;;;;;;;8282506;28;20485;-67
2021/12/23 12:28:59;;;;;;;17.45;11.07;;;;;;;;;;8282562;28;20025;-67
2021/12/23 12:33:01;;;;;;;18.67;11.60;;;;;;;;;;8282187;28;20401;-66
2021/12/23 12:37:03;;;;;;;19.50;10.60;;;;;;;;;;8283399;28;20480;-66
2021/12/23 12:41:05;;;;;;;18.98;11.20;;;;;;;;;;8281873;28;20060;-67
2021/12/23 12:45:12;;;;;;;20.40;11.05;;;;;;;;;;8283610;28;20030;-67
2021/12/23 12:49:18;;;;;;;17.00;10.25;;;;;;;;;;8281890;28;20033;-67
2021/12/23 12:53:19;;;;;;;16.88;11.27;;;;;;;;;;8282903;28;20060;-67
2021/12/23 12:57:20;;;;;;;17.55;10.90;;;;;;;;;;8281077;28;20036;-66
2021/12/23 13:01:34;;;;;;;17.35;10.70;;;;;;;;;;8281625;28;20041;-66
2021/12/23 13:05:36;;;;;;;20.73;10.83;;;;;;;;;;8282782;28;20025;-66
2021/12/23 13:09:47;;;;;;;18.80;11.43;;;;;;;;;;8280442;28;20407;-67
2021/12/23 13:13:59;;;;;;;17.40;10.63;;;;;;;;;;8280673;28;20128;-67
2021/12/23 13:18:02;;;;;;;20.10;11.25;;;;;;;;;;8284135;28;20072;-66
2021/12/23 13:22:06;;;;;;;17.50;10.43;;;;;;;;;;8287189;28;20285;-66
2021/12/23 13:26:08;;;;;;;16.73;10.35;;;;;;;;;;8285472;28;20112;-66
2021/12/23 13:30:10;;;;;;;18.38;10.75;;;;;;;;;;8285915;28;20132;-66
2021/12/23 13:34:12;;;;;;;16.60;10.10;;;;;;;;;;8285775;28;20026;-67
2021/12/23 13:38:29;;;;;;;15.20;9.80;;;;;;;;;;8288079;28;20041;-68
2021/12/23 13:42:29;;;;;;;15.65;9.60;;;;;;;;;;8287283;28;20030;-66
2021/12/23 13:46:31;;;;;;;16.67;9.98;;;;;;;;;;8285584;28;20032;-66
2021/12/23 13:50:32;;;;;;;20.13;10.50;;;;;;;;;;8288439;28;20516;-67
2021/12/23 13:54:33;;;;;;;16.75;10.30;;;;;;;;;;8286063;28;20037;-66
2021/12/23 13:58:33;;;;;;;19.25;10.18;;;;;;;;;;8286447;28;20576;-66
2021/12/23 14:02:34;;;;;;;14.15;8.82;;;;;;;;;;8285660;28;20045;-66
2021/12/23 14:06:34;;;;;;;16.23;10.38;;;;;;;;;;8285866;28;20029;-67
2021/12/23 14:10:37;;;;;;;19.23;10.70;;;;;;;;;;8286119;28;20041;-66
2021/12/23 14:14:50;;;;;;;16.15;10.07;;;;;;;;;;8286940;28;20032;-67
2021/12/23 14:19:00;;;;;;;16.60;10.27;;;;;;;;;;8285171;28;20041;-66
2021/12/23 14:23:12;;;;;;;27.23;14.15;;;;;;;;;;8287762;28;20511;-66
2021/12/23 14:27:13;;;;;;;18.25;10.48;;;;;;;;;;8285946;28;20022;-67
2021/12/23 14:31:18;;;;;;;21.73;11.40;;;;;;;;;;8286639;28;20072;-66
2021/12/23 14:35:25;;;;;;;18.58;11.40;;;;;;;;;;8294150;28;20057;-66
2021/12/23 14:39:27;;;;;;;20.38;10.80;;;;;;;;;;8292036;28;20821;-66
2021/12/23 14:43:43;;;;;;;22.38;11.35;;;;;;;;;;8293557;28;20100;-67
2021/12/23 14:47:56;;;;;;;23.08;11.60;;;;;;;;;;8291390;28;20049;-66
2021/12/23 14:52:09;;;;;;;18.52;10.32;;;;;;;;;;8288151;28;20029;-67
2021/12/23 14:56:09;;;;;;;20.60;11.38;;;;;;;;;;8291523;28;20040;-67
2021/12/23 15:00:12;;;;;;;22.15;11.13;;;;;;;;;;8290236;28;20022;-66
2021/12/23 15:04:14;;;;;;;17.15;10.15;;;;;;;;;;8291139;28;20029;-66
2021/12/23 15:08:14;;;;;;;18.73;10.13;;;;;;;;;;8291861;28;20020;-66
2021/12/23 15:12:16;;;;;;;18.03;10.10;;;;;;;;;;8289560;28;20057;-67
2021/12/23 15:16:18;;;;;;;18.75;10.82;;;;;;;;;;8280864;28;20304;-66
2021/12/23 15:20:19;;;;;;;16.15;9.30;;;;;;;;;;8285425;28;20061;-66
2021/12/23 15:24:27;;;;;;;13.73;8.68;;;;;;;;;;8279556;28;20029;-66
2021/12/23 15:28:27;;;;;;;17.52;9.20;;;;;;;;;;8283940;28;20040;-67
2021/12/23 15:32:29;;;;;;;15.68;9.32;;;;;;;;;;8283038;28;20038;-67
2021/12/23 15:36:29;;;;;;;19.23;10.38;;;;;;;;;;8281476;28;20119;-68
2021/12/23 15:40:31;;;;;;;17.52;9.43;;;;;;;;;;8285163;28;20033;-66
2021/12/23 15:44:32;;;;;;;14.80;9.10;;;;;;;;;;8282167;28;20533;-66
2021/12/23 15:48:34;;;;;;;17.80;9.70;;;;;;;;;;8281742;28;20592;-68
2021/12/23 15:52:34;;;;;;;14.95;10.20;;;;;;;;;;8284271;28;20037;-67
2021/12/23 15:56:34;;;;;;;15.32;9.43;;;;;;;;;;8281645;28;20031;-66
2021/12/23 16:00:35;;;;;;;14.50;9.52;;;;;;;;;;8284475;28;20048;-66
2021/12/23 16:04:38;;;;;;;17.20;10.43;;;;;;;;;;8283308;28;20362;-66
2021/12/23 16:08:38;;;;;;;16.80;10.23;;;;;;;;;;8283149;28;20422;-66
2021/12/23 16:12:38;;;;;;;14.98;9.38;;;;;;;;;;8283841;28;20042;-68
2021/12/23 16:16:38;;;;;;;13.68;9.07;;;;;;;;;;8281178;28;20676;-66
2021/12/23 16:20:39;;;;;;;17.00;9.85;;;;;;;;;;8282281;28;20030;-66
2021/12/23 16:24:40;;;;;;;16.63;9.93;;;;;;;;;;8283450;28;20029;-67
2021/12/23 16:28:40;;;;;;;13.48;9.02;;;;;;;;;;8280922;28;20155;-67
2021/12/23 16:32:48;;;;;;;16.02;9.80;;;;;;;;;;8282563;28;20037;-67
2021/12/23 16:36:48;;;;;;;16.67;10.23;;;;;;;;;;8282827;28;20494;-68
2021/12/23 16:40:50;;;;;;;17.65;9.98;;;;;;;;;;8282698;28;20018;-67
2021/12/23 16:44:51;;;;;;;21.00;10.65;;;;;;;;;;8283223;28;20021;-67
2021/12/23 16:48:51;;;;;;;14.10;9.27;;;;;;;;;;8283175;28;20925;-67
2021/12/23 16:52:52;;;;;;;15.40;9.35;;;;;;;;;;8281704;28;20498;-67
2021/12/23 17:01:05;;;;;;;18.88;10.10;;;;;;;;;;8283073;28;20072;-66
2021/12/23 17:05:06;;;;;;;14.70;9.40;;;;;;;;;;8280502;28;20021;-67
2021/12/23 17:09:06;;;;;;;20.25;10.00;;;;;;;;;;8282218;28;20453;-67
2021/12/23 17:13:06;;;;;;;15.52;9.63;;;;;;;;;;8280397;28;20462;-67
2021/12/23 17:17:07;;;;;;;19.88;9.88;;;;;;;;;;8281321;28;20528;-67
2021/12/23 17:25:08;;;;;;;15.38;8.95;;;;;;;;;;8280543;28;20025;-66
2021/12/23 17:29:09;;;;;;;15.20;9.50;;;;;;;;;;8280752;28;20022;-67
2021/12/23 17:33:09;;;;;;;15.90;9.15;;;;;;;;;;8280045;28;20037;-66
2021/12/23 17:37:11;;;;;;;14.50;9.03;;;;;;;;;;8280415;28;20018;-67
2021/12/23 17:41:11;;;;;;;15.65;9.30;;;;;;;;;;8281568;28;20312;-66
2021/12/23 17:45:12;;;;;;;18.10;9.68;;;;;;;;;;8279229;28;20123;-67
2021/12/23 17:49:13;;;;;;;16.60;10.27;;;;;;;;;;8270077;28;20490;-67
2021/12/23 17:53:13;;;;;;;14.35;9.85;;;;;;;;;;8281657;28;20571;-67
2021/12/23 17:57:14;;;;;;;17.00;9.90;;;;;;;;;;8280629;28;20472;-66
2021/12/23 18:01:14;;;;;;;16.75;9.52;;;;;;;;;;8280854;28;20041;-67
2021/12/23 18:05:15;;;;;;;17.02;9.73;;;;;;;;;;8282910;28;20021;-67
2021/12/23 18:09:15;;;;;;;15.70;9.23;;;;;;;;;;8286315;28;20533;-67
2021/12/23 18:13:15;;;;;;;15.55;8.88;;;;;;;;;;8287156;28;20276;-67
2021/12/23 18:17:17;;;;;;;17.30;10.57;;;;;;;;;;8286136;28;20084;-67
2021/12/23 18:21:17;;;;;;;19.42;10.10;;;;;;;;;;8286483;28;20087;-67
2021/12/23 18:25:17;;;;;;;17.70;9.68;;;;;;;;;;8287141;28;20034;-67
2021/12/23 18:29:17;;;;;;;17.17;9.20;;;;;;;;;;8286379;28;20456;-66
2021/12/23 18:33:18;;;;;;;19.00;10.98;;;;;;;;;;8285355;28;20037;-67
2021/12/23 18:37:18;;;;;;;16.60;10.43;;;;;;;;;;8286827;28;20025;-67
2021/12/23 18:41:22;;;;;;;16.92;10.02;;;;;;;;;;8284560;28;20029;-67
2021/12/23 18:45:24;;;;;;;15.60;9.50;;;;;;;;;;8285871;28;20038;-67
2021/12/23 18:49:26;;;;;;;17.70;10.00;;;;;;;;;;8286137;28;20266;-67
2021/12/23 18:53:26;;;;;;;16.50;9.93;;;;;;;;;;8286105;28;20907;-67
2021/12/23 18:57:26;;;;;;;17.10;10.82;;;;;;;;;;8285612;28;20022;-67
2021/12/23 19:01:28;;;;;;;14.23;8.98;;;;;;;;;;8284986;28;20068;-66
2021/12/23 19:05:33;;;;;;;12.77;9.25;;;;;;;;;;8284512;28;20474;-68
2021/12/23 19:09:33;;;;;;;15.18;9.75;;;;;;;;;;8285658;28;20036;-67
2021/12/23 19:13:33;;;;;;;15.32;9.18;;;;;;;;;;8284092;28;20581;-67
2021/12/23 19:17:34;;;;;;;15.00;8.77;;;;;;;;;;8283644;28;20106;-67
2021/12/23 19:21:36;;;;;;;13.82;9.30;;;;;;;;;;8286469;28;20142;-67
2021/12/23 19:25:37;;;;;;;14.25;9.07;;;;;;;;;;8284241;28;20099;-67
2021/12/23 19:29:37;;;;;;;14.90;8.70;;;;;;;;;;8285507;28;20471;-67
2021/12/23 19:33:38;;;;;;;15.52;10.07;;;;;;;;;;8284111;28;20091;-67
2021/12/23 19:37:38;;;;;;;14.40;10.00;;;;;;;;;;8283427;28;20033;-67
2021/12/23 19:41:39;;;;;;;18.45;9.80;;;;;;;;;;8283788;28;20041;-67
2021/12/23 19:45:42;;;;;;;14.95;9.13;;;;;;;;;;8284869;28;20033;-67
2021/12/23 19:49:42;;;;;;;11.68;8.32;;;;;;;;;;8284396;28;20558;-67
2021/12/23 19:53:42;;;;;;;18.17;9.20;;;;;;;;;;8284712;28;20104;-67
2021/12/23 19:57:43;;;;;;;11.82;8.23;;;;;;;;;;8282786;28;20155;-67
2021/12/23 20:01:43;;;;;;;14.25;9.40;;;;;;;;;;8283567;28;20143;-66
2021/12/23 20:05:45;;;;;;;12.50;9.00;;;;;;;;;;8283886;28;20029;-67
2021/12/23 20:09:46;;;;;;;16.73;9.02;;;;;;;;;;8283248;28;20029;-67
2021/12/23 20:13:49;;;;;;;15.02;9.48;;;;;;;;;;8283418;28;20025;-67
2021/12/23 20:17:50;;;;;;;16.63;9.57;;;;;;;;;;8282340;28;20045;-67
2021/12/23 20:21:50;;;;;;;12.55;8.75;;;;;;;;;;8283393;28;20079;-67
2021/12/23 20:25:50;;;;;;;14.13;9.00;;;;;;;;;;8282715;28;20032;-67
2021/12/23 20:29:50;;;;;;;11.88;8.70;;;;;;;;;;8283102;28;20263;-67
2021/12/23 20:33:51;;;;;;;13.63;9.20;;;;;;;;;;8280080;28;20092;-67
2021/12/23 20:37:52;;;;;;;16.38;8.25;;;;;;;;;;8282460;28;20411;-67
2021/12/23 20:41:52;;;;;;;15.80;9.13;;;;;;;;;;8280884;28;20087;-67
2021/12/23 20:45:52;;;;;;;16.00;9.35;;;;;;;;;;8281744;28;20175;-68
2021/12/23 20:49:57;;;;;;;12.70;8.80;;;;;;;;;;8280991;28;20033;-68
2021/12/23 20:53:59;;;;;;;11.52;8.25;;;;;;;;;;8281307;28;20018;-67
2021/12/23 20:58:00;;;;;;;17.25;8.70;;;;;;;;;;8281797;28;20025;-67
2021/12/23 21:02:00;;;;;;;12.40;8.10;;;;;;;;;;8279806;28;20041;-67
2021/12/23 21:06:01;;;;;;;16.53;9.10;;;;;;;;;;8280835;28;20032;-67
2021/12/23 21:10:01;;;;;;;15.73;8.57;;;;;;;;;;8281295;28;20322;-67
2021/12/23 21:14:02;;;;;;;14.38;9.30;;;;;;;;;;8282329;28;20131;-67
2021/12/23 21:18:03;;;;;;;15.40;9.52;;;;;;;;;;8280235;28;20033;-67
2021/12/23 21:22:04;;;;;;;15.70;8.90;;;;;;;;;;8281928;28;20530;-67
2021/12/23 21:26:05;;;;;;;12.88;8.82;;;;;;;;;;8280594;28;20014;-67
2021/12/23 21:30:07;;;;;;;12.45;8.73;;;;;;;;;;8281578;28;20027;-67
2021/12/23 21:34:07;;;;;;;15.18;9.07;;;;;;;;;;8280896;28;20474;-67
2021/12/23 21:38:08;;;;;;;16.90;8.85;;;;;;;;;;8280621;28;20021;-67
2021/12/23 21:42:08;;;;;;;12.98;8.43;;;;;;;;;;8286793;28;20545;-67
2021/12/23 21:46:08;;;;;;;14.57;8.90;;;;;;;;;;8286479;28;20454;-67
2021/12/23 21:50:09;;;;;;;12.80;8.55;;;;;;;;;;8286571;28;20547;-67
2021/12/23 21:54:14;;;;;;;16.88;9.38;;;;;;;;;;8283732;28;20017;-67
2021/12/23 21:58:14;;;;;;;15.73;8.90;;;;;;;;;;8286683;28;20561;-67
2021/12/23 22:02:14;;;;;;;13.33;8.83;;;;;;;;;;8285238;28;20505;-67
2021/12/23 22:06:15;;;;;;;14.85;9.23;;;;;;;;;;8284561;28;20466;-67
2021/12/23 22:10:16;;;;;;;12.00;8.32;;;;;;;;;;8286206;28;20040;-67
2021/12/23 22:14:17;;;;;;;16.33;9.02;;;;;;;;;;8285712;28;20600;-67
2021/12/23 22:18:18;;;;;;;18.60;8.95;;;;;;;;;;8278701;28;20537;-67
2021/12/23 22:22:18;;;;;;;13.25;8.65;;;;;;;;;;8285074;28;20033;-67
2021/12/23 22:26:19;;;;;;;12.80;8.40;;;;;;;;;;8285255;28;20022;-67
2021/12/23 22:30:19;;;;;;;10.63;7.60;;;;;;;;;;8285530;28;20260;-67
2021/12/23 22:34:19;;;;;;;13.15;8.07;;;;;;;;;;8285438;28;20573;-68
2021/12/23 22:38:20;;;;;;;16.08;8.65;;;;;;;;;;8286450;28;20387;-67
2021/12/23 22:42:20;;;;;;;15.45;8.80;;;;;;;;;;8284007;28;20512;-67
2021/12/23 22:46:20;;;;;;;11.48;7.70;;;;;;;;;;8283025;28;21069;-67
2021/12/23 22:50:21;;;;;;;18.75;8.85;;;;;;;;;;8284737;28;20438;-67
2021/12/23 22:54:21;;;;;;;13.98;8.52;;;;;;;;;;8284546;28;20033;-68
2021/12/23 22:58:21;;;;;;;12.75;8.18;;;;;;;;;;8283626;28;20446;-67
2021/12/23 23:02:21;;;;;;;12.55;8.35;;;;;;;;;;8284072;28;20549;-67
2021/12/23 23:06:21;;;;;;;10.65;7.68;;;;;;;;;;8284666;28;20053;-67
2021/12/23 23:10:22;;;;;;;10.88;7.45;;;;;;;;;;8284218;28;20025;-67
2021/12/23 23:14:35;;;;;;;12.77;7.68;;;;;;;;;;8284336;28;20650;-67
2021/12/23 23:18:36;;;;;;;11.90;7.70;;;;;;;;;;8281948;28;20379;-67
2021/12/23 23:22:37;;;;;;;12.05;7.82;;;;;;;;;;8284767;28;20033;-67
2021/12/23 23:26:47;;;;;;;11.07;7.18;;;;;;;;;;8283215;28;20040;-67
2021/12/23 23:35:20;;;;;;;15.25;8.63;;;;;;;;;;8283829;28;20404;-67
2021/12/23 23:43:31;;;;;;;14.27;8.50;;;;;;;;;;8283980;28;20033;-67
2021/12/23 23:47:31;;;;;;;12.57;8.88;;;;;;;;;;8280743;28;20124;-67
2021/12/23 23:51:31;;;;;;;14.27;9.38;;;;;;;;;;8281530;28;20545;-67
2021/12/23 23:55:38;;;;;;;13.70;9.35;;;;;;;;;;8282976;28;20458;-67
2021/12/23 23:59:38;;;;;;;15.57;8.98;;;;;;;;;;8283628;28;20033;-67
